createdAt,value
2023-01-30T00:37:19.321Z,-2.96
2023-01-30T00:39:47.800Z,-2.80
2023-01-30T00:42:34.155Z,-2.80
2023-01-30T00:45:20.921Z,-2.80
2023-01-30T00:47:49.054Z,-2.81
2023-01-30T00:50:17.100Z,-2.80
2023-01-30T00:52:44.901Z,-2.78
2023-01-30T00:55:16.008Z,-2.76
2023-01-30T00:57:45.292Z,-2.76
2023-01-30T01:00:17.175Z,-2.74
2023-01-30T01:02:45.222Z,-2.75
2023-01-30T01:05:13.141Z,-2.76
2023-01-30T01:07:41.037Z,-2.77
2023-01-30T01:10:16.301Z,-2.79
2023-01-30T01:12:44.904Z,-2.81
2023-01-30T01:15:13.371Z,-2.82
2023-01-30T01:17:41.953Z,-2.84
2023-01-30T01:20:12.840Z,-2.84
2023-01-30T01:22:41.470Z,-2.85
2023-01-30T01:25:10.364Z,-2.83
2023-01-30T01:27:40.286Z,-2.81
2023-01-30T01:30:08.727Z,-2.80
2023-01-30T01:32:38.041Z,-2.79
2023-01-30T01:35:06.372Z,-2.79
2023-01-30T01:37:34.694Z,-2.81
2023-01-30T01:40:21.205Z,-2.85
2023-01-30T01:42:50.975Z,-2.89
2023-01-30T01:45:22.893Z,-2.92
2023-01-30T01:48:06.231Z,-2.94
2023-01-30T01:51:18.606Z,-2.94
2023-01-30T01:53:55.245Z,-2.94
2023-01-30T01:56:23.624Z,-2.94
2023-01-30T01:58:54.153Z,-2.93
2023-01-30T02:01:23.996Z,-2.92
2023-01-30T02:03:56.750Z,-2.92
2023-01-30T02:06:24.843Z,-2.93
2023-01-30T02:08:55.808Z,-2.94
2023-01-30T02:11:32.298Z,-2.95
2023-01-30T02:14:00.704Z,-2.96
2023-01-30T02:16:29.104Z,-2.96
2023-01-30T02:18:57.022Z,-2.94
2023-01-30T02:22:06.572Z,-2.91
2023-01-30T02:24:56.209Z,-2.89
2023-01-30T02:27:42.385Z,-2.87
2023-01-30T02:30:35.425Z,-2.86
2023-01-30T02:33:09.427Z,-2.84
2023-01-30T02:35:59.608Z,-2.84
2023-01-30T02:38:30.729Z,-2.84
2023-01-30T02:41:22.663Z,-2.84
2023-01-30T02:44:05.377Z,-2.83
2023-01-30T02:46:52.942Z,-2.81
2023-01-30T02:49:36.780Z,-2.79
2023-01-30T02:52:07.267Z,-2.77
2023-01-30T02:54:35.218Z,-2.76
2023-01-30T02:57:03.884Z,-2.74
2023-01-30T02:59:35.130Z,-2.74
2023-01-30T03:02:22.800Z,-2.74
2023-01-30T03:05:20.895Z,-2.74
2023-01-30T03:08:17.696Z,-2.75
2023-01-30T03:11:03.687Z,-2.74
2023-01-30T03:13:45.815Z,-2.72
2023-01-30T03:16:29.264Z,-2.69
2023-01-30T03:18:57.355Z,-2.68
2023-01-30T03:21:25.407Z,-2.66
2023-01-30T03:23:53.701Z,-2.65
2023-01-30T03:26:24.568Z,-2.65
2023-01-30T03:28:52.551Z,-2.65
2023-01-30T03:31:20.940Z,-2.66
2023-01-30T03:33:48.899Z,-2.67
2023-01-30T03:36:16.722Z,-2.68
2023-01-30T03:38:46.535Z,-2.67
2023-01-30T03:41:14.560Z,-2.67
2023-01-30T03:43:42.785Z,-2.65
2023-01-30T03:46:10.896Z,-2.64
2023-01-30T03:48:40.116Z,-2.62
2023-01-30T03:51:08.408Z,-2.61
2023-01-30T03:53:36.794Z,-2.62
2023-01-30T03:56:06.068Z,-2.62
2023-01-30T03:58:34.986Z,-2.64
2023-01-30T04:01:13.604Z,-2.64
2023-01-30T04:03:42.492Z,-2.63
2023-01-30T04:06:10.368Z,-2.62
2023-01-30T04:08:39.396Z,-2.60
2023-01-30T04:11:07.643Z,-2.60
2023-01-30T04:13:36.624Z,-2.59
2023-01-30T04:16:25.254Z,-2.60
2023-01-30T04:19:11.648Z,-2.63
2023-01-30T04:21:40.580Z,-2.63
2023-01-30T04:24:08.979Z,-2.62
2023-01-30T04:26:37.287Z,-2.62
2023-01-30T04:29:05.941Z,-2.60
2023-01-30T04:31:34.106Z,-2.58
2023-01-30T04:34:07.677Z,-2.58
2023-01-30T04:36:36.994Z,-2.58
2023-01-30T04:39:05.432Z,-2.58
2023-01-30T04:41:33.516Z,-2.59
2023-01-30T04:44:01.939Z,-2.60
2023-01-30T04:46:50.151Z,-2.58
2023-01-30T04:49:18.701Z,-2.56
2023-01-30T04:51:48.149Z,-2.54
2023-01-30T04:54:16.274Z,-2.53
2023-01-30T04:56:44.179Z,-2.54
2023-01-30T04:59:12.164Z,-2.56
2023-01-30T05:01:43.408Z,-2.57
2023-01-30T05:04:11.359Z,-2.58
2023-01-30T05:06:39.258Z,-2.57
2023-01-30T05:09:07.262Z,-2.56
2023-01-30T05:11:35.948Z,-2.54
2023-01-30T05:14:03.960Z,-2.54
2023-01-30T05:16:33.722Z,-2.54
2023-01-30T05:19:02.302Z,-2.55
2023-01-30T05:21:30.574Z,-2.56
2023-01-30T05:23:58.655Z,-2.56
2023-01-30T05:26:26.955Z,-2.57
2023-01-30T05:28:55.899Z,-2.56
2023-01-30T05:31:24.394Z,-2.55
2023-01-30T05:33:52.568Z,-2.53
2023-01-30T05:36:21.466Z,-2.53
2023-01-30T05:38:50.142Z,-2.51
2023-01-30T05:41:18.251Z,-2.51
2023-01-30T05:43:49.432Z,-2.50
2023-01-30T05:46:17.521Z,-2.50
2023-01-30T05:48:45.769Z,-2.51
2023-01-30T05:51:22.318Z,-2.50
2023-01-30T05:53:52.651Z,-2.48
2023-01-30T05:56:20.871Z,-2.46
2023-01-30T05:58:52.492Z,-2.45
2023-01-30T06:31:01.621Z,-2.05
2023-01-30T06:33:28.728Z,-1.98
2023-01-30T06:35:55.221Z,-2.03
2023-01-30T06:38:22.044Z,-2.06
2023-01-30T06:40:49.136Z,-2.07
2023-01-30T06:43:16.288Z,-2.07
2023-01-30T06:45:43.725Z,-2.08
2023-01-30T06:48:10.341Z,-2.09
2023-01-30T06:50:36.905Z,-2.09
2023-01-30T06:53:06.859Z,-2.11
2023-01-30T06:55:34.961Z,-2.11
2023-01-30T06:58:08.010Z,-2.09
2023-01-30T07:00:34.890Z,-2.09
2023-01-30T07:03:02.236Z,-2.08
2023-01-30T07:05:29.113Z,-2.08
2023-01-30T07:07:55.849Z,-2.09
2023-01-30T07:10:22.634Z,-2.07
2023-01-30T07:12:49.485Z,-2.05
2023-01-30T07:15:19.012Z,-2.02
2023-01-30T07:17:45.738Z,-2.00
2023-01-30T07:20:12.567Z,-1.98
2023-01-30T07:22:39.414Z,-1.96
2023-01-30T07:25:06.298Z,-1.94
2023-01-30T07:27:33.244Z,-1.92
2023-01-30T07:30:02.671Z,-1.91
2023-01-30T07:32:29.915Z,-1.90
2023-01-30T07:34:57.655Z,-1.89
2023-01-30T07:37:24.530Z,-1.86
2023-01-30T07:39:51.183Z,-1.83
2023-01-30T07:42:18.392Z,-1.83
2023-01-30T07:44:45.636Z,-1.81
2023-01-30T07:47:12.377Z,-1.77
2023-01-30T07:49:38.898Z,-1.73
2023-01-30T07:52:05.583Z,-1.70
2023-01-30T07:54:32.558Z,-1.65
2023-01-30T07:56:59.084Z,-1.60
2023-01-30T07:59:26.204Z,-1.56
2023-01-30T08:01:53.087Z,-1.53
2023-01-30T08:04:20.184Z,-1.49
2023-01-30T08:06:46.795Z,-1.46
2023-01-30T08:09:13.449Z,-1.42
2023-01-30T08:11:40.040Z,-1.39
2023-01-30T08:14:07.172Z,-1.37
2023-01-30T08:16:33.760Z,-1.35
2023-01-30T08:19:00.261Z,-1.32
2023-01-30T08:21:26.855Z,-1.28
2023-01-30T08:23:53.387Z,-1.21
2023-01-30T08:26:20.012Z,-1.11
2023-01-30T08:28:46.480Z,-0.98
2023-01-30T08:31:13.502Z,-0.89
2023-01-30T08:33:43.454Z,-0.80
2023-01-30T08:36:10.166Z,-0.73
2023-01-30T08:38:36.997Z,-0.69
2023-01-30T08:41:07.531Z,-0.68
2023-01-30T08:43:34.736Z,-0.69
2023-01-30T08:46:01.593Z,-0.71
2023-01-30T08:48:31.844Z,-0.74
2023-01-30T08:51:03.962Z,-0.79
2023-01-30T08:53:30.652Z,-0.80
2023-01-30T08:55:57.204Z,-0.79
2023-01-30T08:58:25.034Z,-0.78
2023-01-30T09:00:51.597Z,-0.77
2023-01-30T09:03:18.234Z,-0.77
2023-01-30T09:05:45.340Z,-0.76
2023-01-30T09:08:12.522Z,-0.78
2023-01-30T09:10:39.185Z,-0.85
2023-01-30T09:13:26.102Z,-0.93
2023-01-30T09:15:52.729Z,-1.01
2023-01-30T09:18:19.382Z,-1.06
2023-01-30T09:20:47.848Z,-1.09
2023-01-30T09:23:14.464Z,-1.17
2023-01-30T09:25:46.267Z,-1.25
2023-01-30T09:28:13.099Z,-1.31
2023-01-30T09:30:39.767Z,-1.35
2023-01-30T09:33:09.450Z,-1.38
2023-01-30T09:35:36.250Z,-1.39
2023-01-30T09:38:04.045Z,-1.40
2023-01-30T09:40:33.539Z,-1.45
2023-01-30T09:43:22.088Z,-1.47
2023-01-30T09:45:57.649Z,-1.44
2023-01-30T09:48:30.266Z,-1.42
2023-01-30T09:51:02.612Z,-1.40
2023-01-30T09:53:35.155Z,-1.37
2023-01-30T09:56:02.098Z,-1.34
2023-01-30T09:58:37.276Z,-1.33
2023-01-30T10:01:05.965Z,-1.30
2023-01-30T10:03:36.579Z,-1.23
2023-01-30T10:06:12.045Z,-1.19
2023-01-30T10:08:49.291Z,-1.13
2023-01-30T10:11:40.435Z,-1.06
2023-01-30T10:14:58.431Z,-1.01
2023-01-30T10:17:51.197Z,-0.95
2023-01-30T10:20:51.655Z,-0.89
2023-01-30T10:23:39.748Z,-0.83
2023-01-30T10:26:19.262Z,-0.80
2023-01-30T10:29:06.563Z,-0.79
2023-01-30T10:32:01.449Z,-0.73
2023-01-30T10:34:33.406Z,-0.69
2023-01-30T10:37:14.336Z,-0.63
2023-01-30T10:39:55.283Z,-0.56
2023-01-30T10:42:38.986Z,-0.54
2023-01-30T10:45:16.182Z,-0.58
2023-01-30T10:48:17.268Z,-0.57
2023-01-30T10:51:02.897Z,-0.55
2023-01-30T10:53:37.344Z,-0.52
2023-01-30T10:56:26.036Z,-0.50
2023-01-30T10:59:21.051Z,-0.47
2023-01-30T11:02:03.787Z,-0.45
2023-01-30T11:04:34.492Z,-0.43
2023-01-30T11:07:01.691Z,-0.40
2023-01-30T11:09:45.563Z,-0.37
2023-01-30T11:12:15.045Z,-0.36
2023-01-30T11:15:05.285Z,-0.37
2023-01-30T11:17:34.650Z,-0.37
2023-01-30T11:20:04.364Z,-0.39
2023-01-30T11:22:31.012Z,-0.41
2023-01-30T11:25:06.271Z,-0.44
2023-01-30T11:27:34.045Z,-0.42
2023-01-30T11:30:18.152Z,-0.39
2023-01-30T11:32:47.337Z,-0.35
2023-01-30T11:35:13.832Z,-0.32
2023-01-30T11:37:44.412Z,-0.28
2023-01-30T11:40:18.486Z,-0.25
2023-01-30T11:42:50.105Z,-0.24
2023-01-30T11:45:18.692Z,-0.22
2023-01-30T11:47:59.668Z,-0.26
2023-01-30T11:50:40.849Z,-0.30
2023-01-30T11:53:40.299Z,-0.34
2023-01-30T11:56:23.748Z,-0.39
2023-01-30T11:58:57.941Z,-0.42
2023-01-30T12:01:29.463Z,-0.43
2023-01-30T12:03:56.512Z,-0.44
2023-01-30T12:06:31.081Z,-0.45
2023-01-30T12:08:57.892Z,-0.48
2023-01-30T12:11:28.160Z,-0.48
2023-01-30T12:14:08.560Z,-0.46
2023-01-30T12:16:51.117Z,-0.43
2023-01-30T12:19:28.285Z,-0.43
2023-01-30T12:22:03.641Z,-0.44
2023-01-30T12:24:48.438Z,-0.47
2023-01-30T12:27:38.358Z,-0.50
2023-01-30T12:30:23.264Z,-0.54
2023-01-30T12:32:51.722Z,-0.58
2023-01-30T12:35:18.879Z,-0.60
2023-01-30T12:37:56.022Z,-0.61
2023-01-30T12:40:32.935Z,-0.60
2023-01-30T12:43:23.568Z,-0.59
2023-01-30T12:46:09.282Z,-0.59
2023-01-30T12:49:20.389Z,-0.58
2023-01-30T12:51:49.755Z,-0.55
2023-01-30T12:54:20.410Z,-0.55
2023-01-30T12:56:48.426Z,-0.56
2023-01-30T12:59:18.976Z,-0.58
2023-01-30T13:01:48.606Z,-0.59
2023-01-30T13:04:29.283Z,-0.59
2023-01-30T13:07:17.193Z,-0.60
2023-01-30T13:09:55.807Z,-0.59
2023-01-30T13:12:37.659Z,-0.57
2023-01-30T13:15:26.165Z,-0.57
2023-01-30T13:18:07.607Z,-0.59
2023-01-30T13:20:40.634Z,-0.59
2023-01-30T13:23:17.623Z,-0.59
2023-01-30T13:25:57.951Z,-0.60
2023-01-30T13:28:26.261Z,-0.59
2023-01-30T13:30:52.933Z,-0.58
2023-01-30T13:33:21.922Z,-0.58
2023-01-30T13:36:06.845Z,-0.58
2023-01-30T13:38:34.264Z,-0.59
2023-01-30T13:41:02.505Z,-0.61
2023-01-30T13:43:35.792Z,-0.64
2023-01-30T13:46:05.973Z,-0.66
2023-01-30T13:48:38.975Z,-0.64
2023-01-30T13:51:39.437Z,-0.62
2023-01-30T13:54:12.177Z,-0.61
2023-01-30T13:56:42.757Z,-0.63
2023-01-30T13:59:15.920Z,-0.64
2023-01-30T14:02:09.614Z,-0.65
2023-01-30T14:04:40.622Z,-0.65
2023-01-30T14:19:34.180Z,-0.25
2023-01-30T14:22:05.116Z,-0.29
2023-01-30T14:24:35.080Z,-0.37
2023-01-30T14:27:04.444Z,-0.44
2023-01-30T14:29:38.565Z,-0.50
2023-01-30T14:32:13.583Z,-0.53
2023-01-30T14:35:11.075Z,-0.59
2023-01-30T14:37:39.024Z,-0.64
2023-01-30T14:40:22.129Z,-0.67
2023-01-30T14:43:12.115Z,-0.69
2023-01-30T14:45:56.843Z,-0.72
2023-01-30T14:49:01.105Z,-0.73
2023-01-30T14:51:35.268Z,-0.77
2023-01-30T14:54:13.166Z,-0.81
2023-01-30T14:56:41.513Z,-0.83
2023-01-30T14:59:11.258Z,-0.84
2023-01-30T15:02:05.427Z,-0.86
2023-01-30T15:04:45.577Z,-0.88
2023-01-30T15:07:17.084Z,-0.89
2023-01-30T15:09:49.635Z,-0.92
2023-01-30T15:12:42.190Z,-0.91
2023-01-30T15:15:47.617Z,-0.90
2023-01-30T15:18:43.555Z,-0.91
2023-01-30T15:21:29.094Z,-0.91
2023-01-30T15:24:12.138Z,-0.92
2023-01-30T15:26:52.380Z,-0.94
2023-01-30T15:29:31.257Z,-0.95
2023-01-30T15:32:00.845Z,-0.95
2023-01-30T15:34:31.591Z,-0.97
2023-01-30T15:37:00.009Z,-0.97
2023-01-30T15:39:28.355Z,-0.98
2023-01-30T15:42:01.351Z,-1.00
2023-01-30T15:44:35.817Z,-1.03
2023-01-30T15:47:09.605Z,-1.03
2023-01-30T15:50:02.587Z,-1.02
2023-01-30T16:12:26.615Z,-0.52
2023-01-30T16:15:03.203Z,-0.49
2023-01-30T16:17:40.374Z,-0.56
2023-01-30T16:20:12.756Z,-0.62
2023-01-30T16:22:43.390Z,-0.67
2023-01-30T16:25:17.573Z,-0.72
2023-01-30T16:27:48.393Z,-0.79
2023-01-30T16:30:21.575Z,-0.83
2023-01-30T16:32:49.592Z,-0.88
2023-01-30T16:35:31.602Z,-0.91
2023-01-30T16:38:00.637Z,-0.95
2023-01-30T16:40:43.342Z,-0.98
2023-01-30T16:43:18.510Z,-0.99
2023-01-30T16:45:53.124Z,-1.01
2023-01-30T16:48:30.924Z,-1.02
2023-01-30T16:50:58.830Z,-1.03
2023-01-30T16:53:28.351Z,-1.04
2023-01-30T16:56:04.472Z,-1.05
2023-01-30T18:09:38.101Z,-1.26
2023-01-30T18:12:06.428Z,-1.19
2023-01-30T18:14:34.515Z,-1.22
2023-01-30T18:17:02.824Z,-1.25
2023-01-30T18:19:31.684Z,-1.27
2023-01-30T18:22:00.173Z,-1.31
2023-01-30T18:24:29.091Z,-1.33
2023-01-30T18:26:56.978Z,-1.35
2023-01-30T18:29:24.791Z,-1.38
2023-01-30T18:31:52.918Z,-1.41
2023-01-30T18:34:20.841Z,-1.43
2023-01-30T18:36:48.679Z,-1.43
2023-01-30T18:39:17.998Z,-1.43
2023-01-30T18:41:46.022Z,-1.44
2023-01-30T18:44:13.880Z,-1.45
2023-01-30T18:46:41.792Z,-1.47
2023-01-30T18:49:09.783Z,-1.50
2023-01-30T18:51:37.874Z,-1.51
2023-01-30T18:54:05.764Z,-1.53
2023-01-30T18:56:34.503Z,-1.54
2023-01-30T18:59:04.211Z,-1.54
2023-01-30T19:01:42.441Z,-1.55
2023-01-30T19:04:10.731Z,-1.58
2023-01-30T19:06:40.556Z,-1.59
2023-01-30T19:09:08.817Z,-1.59
2023-01-30T19:11:57.961Z,-1.58
2023-01-30T19:14:25.894Z,-1.57
2023-01-30T19:16:54.603Z,-1.55
2023-01-30T19:19:22.473Z,-1.57
2023-01-30T19:21:52.185Z,-1.61
2023-01-30T19:24:23.627Z,-1.66
2023-01-30T19:26:51.660Z,-1.69
2023-01-30T19:29:23.252Z,-1.73
2023-01-30T19:31:51.229Z,-1.76
2023-01-30T19:34:19.766Z,-1.80
2023-01-30T19:36:47.887Z,-1.84
2023-01-30T19:39:15.780Z,-1.90
2023-01-30T19:41:44.067Z,-1.94
2023-01-30T19:44:12.108Z,-1.97
2023-01-30T19:46:40.463Z,-2.00
2023-01-30T19:49:10.789Z,-2.02
2023-01-30T19:51:38.789Z,-2.03
2023-01-30T19:54:07.725Z,-2.05
2023-01-30T19:56:37.393Z,-2.07
2023-01-30T19:59:05.374Z,-2.07
2023-01-30T20:01:35.649Z,-2.06
2023-01-30T20:04:03.855Z,-2.06
2023-01-30T20:06:33.316Z,-2.05
2023-01-30T20:09:08.334Z,-2.06
2023-01-30T20:11:36.584Z,-2.07
2023-01-30T20:14:07.330Z,-2.08
2023-01-30T20:16:37.692Z,-2.08
2023-01-30T20:19:12.869Z,-2.10
2023-01-30T20:21:40.794Z,-2.13
2023-01-30T20:24:11.632Z,-2.14
2023-01-30T20:26:39.936Z,-2.16
2023-01-30T20:29:09.256Z,-2.16
2023-01-30T20:31:39.141Z,-2.16
2023-01-30T20:34:09.519Z,-2.17
2023-01-30T20:36:37.601Z,-2.17
2023-01-30T20:39:07.627Z,-2.17
2023-01-30T20:41:37.667Z,-2.17
2023-01-30T20:44:07.162Z,-2.18
2023-01-30T20:46:41.786Z,-2.18
2023-01-30T20:49:18.555Z,-2.18
2023-01-30T20:51:47.046Z,-2.18
2023-01-30T20:54:14.993Z,-2.20
2023-01-30T20:56:48.968Z,-2.21
2023-01-30T20:59:19.166Z,-2.23
2023-01-30T21:01:47.123Z,-2.23
2023-01-30T21:04:16.152Z,-2.23
2023-01-30T21:06:46.000Z,-2.23
2023-01-30T21:09:19.988Z,-2.23
2023-01-30T21:11:50.993Z,-2.23
2023-01-30T21:14:19.453Z,-2.24
2023-01-30T21:16:47.503Z,-2.25
2023-01-30T21:19:17.451Z,-2.25
2023-01-30T21:21:50.826Z,-2.25
2023-01-30T21:24:21.762Z,-2.25
2023-01-30T21:26:50.158Z,-2.25
2023-01-30T21:29:19.988Z,-2.27
2023-01-30T21:31:48.489Z,-2.28
2023-01-30T21:34:16.613Z,-2.27
2023-01-30T21:37:04.503Z,-2.27
2023-01-30T21:39:53.493Z,-2.27
2023-01-30T21:42:40.430Z,-2.28
2023-01-30T21:45:08.673Z,-2.28
2023-01-30T21:47:37.000Z,-2.30
2023-01-30T21:50:05.322Z,-2.30
2023-01-30T21:52:33.610Z,-2.30
2023-01-30T21:55:01.818Z,-2.31
2023-01-30T21:57:30.213Z,-2.31
2023-01-30T21:59:58.143Z,-2.29
